createdAt,value
2018-08-25T00:00:31.427Z,16.60
2018-08-25T00:02:34.511Z,16.50
2018-08-25T00:04:37.597Z,16.50
2018-08-25T00:06:40.844Z,16.50
2018-08-25T00:08:43.923Z,16.50
2018-08-25T00:10:47.119Z,16.50
2018-08-25T00:12:50.210Z,16.40
2018-08-25T00:14:53.308Z,16.50
2018-08-25T00:16:56.434Z,16.50
2018-08-25T00:18:59.547Z,16.40
2018-08-25T00:21:02.628Z,16.40
2018-08-25T00:23:05.855Z,16.40
2018-08-25T00:25:08.931Z,16.40
2018-08-25T00:27:12.020Z,16.40
2018-08-25T00:29:15.104Z,16.40
2018-08-25T00:31:23.484Z,16.40
2018-08-25T00:33:26.576Z,16.30
2018-08-25T00:35:29.672Z,16.30
2018-08-25T00:37:32.757Z,16.30
2018-08-25T00:39:35.843Z,16.30
2018-08-25T00:41:38.940Z,16.20
2018-08-25T00:43:42.042Z,16.20
2018-08-25T00:45:45.115Z,16.20
2018-08-25T00:47:48.243Z,16.20
2018-08-25T00:49:51.302Z,16.10
2018-08-25T00:51:54.384Z,16.10
2018-08-25T00:53:57.488Z,16.10
2018-08-25T00:56:00.792Z,16.10
2018-08-25T00:58:03.913Z,16.10
2018-08-25T01:00:07.004Z,16.00
2018-08-25T01:02:10.100Z,16.00
2018-08-25T01:04:13.194Z,16.00
2018-08-25T01:06:16.278Z,15.90
2018-08-25T01:10:22.244Z,15.90
2018-08-25T01:12:25.330Z,15.90
2018-08-25T01:14:28.411Z,15.90
2018-08-25T01:16:31.504Z,15.90
2018-08-25T01:18:34.588Z,15.90
2018-08-25T01:20:37.700Z,15.90
2018-08-25T01:22:40.811Z,15.90
2018-08-25T01:24:43.896Z,15.80
2018-08-25T01:26:47.260Z,15.80
2018-08-25T01:28:51.319Z,15.80
2018-08-25T01:30:54.403Z,15.80
2018-08-25T01:32:57.547Z,15.80
2018-08-25T01:35:00.639Z,15.80
2018-08-25T01:39:08.287Z,15.70
2018-08-25T01:41:11.367Z,15.60
2018-08-25T01:43:14.459Z,15.60
2018-08-25T01:45:17.559Z,15.60
2018-08-25T02:01:40.835Z,15.70
2018-08-25T02:03:43.928Z,15.60
2018-08-25T02:26:16.167Z,15.50
2018-08-25T02:28:19.321Z,15.50
2018-08-25T02:30:22.335Z,15.50
2018-08-25T02:32:25.412Z,15.50
2018-08-25T02:34:28.499Z,15.50
2018-08-25T02:36:31.587Z,15.50
2018-08-25T02:38:34.686Z,15.50
2018-08-25T02:40:37.772Z,15.50
2018-08-25T02:42:40.855Z,15.50
2018-08-25T02:44:43.967Z,15.50
2018-08-25T02:46:47.061Z,15.50
2018-08-25T02:48:50.144Z,15.50
2018-08-25T02:50:53.236Z,15.50
2018-08-25T02:52:56.310Z,15.40
2018-08-25T02:54:59.395Z,15.40
2018-08-25T03:11:22.618Z,15.50
2018-08-25T03:13:25.705Z,15.50
2018-08-25T03:15:28.799Z,15.50
2018-08-25T03:17:31.894Z,15.60
2018-08-25T03:19:35.009Z,15.60
2018-08-25T03:21:38.071Z,15.50
2018-08-25T03:23:41.155Z,15.50
2018-08-25T03:25:44.288Z,15.50
2018-08-25T03:27:47.401Z,15.60
2018-08-25T03:29:50.475Z,15.60
2018-08-25T03:31:53.572Z,15.50
2018-08-25T03:33:56.659Z,15.50
2018-08-25T03:35:59.739Z,15.50
2018-08-25T03:38:02.823Z,15.50
2018-08-25T03:40:05.923Z,15.50
2018-08-25T03:42:08.994Z,15.50
2018-08-25T03:48:19.033Z,15.20
2018-08-25T03:54:27.962Z,14.70
2018-08-25T03:56:31.031Z,14.80
2018-08-25T03:58:34.138Z,14.70
2018-08-25T04:00:37.232Z,14.70
2018-08-25T04:02:40.316Z,14.60
2018-08-25T04:04:43.403Z,14.60
2018-08-25T04:06:46.503Z,14.60
2018-08-25T04:08:49.583Z,14.60
2018-08-25T04:10:52.691Z,14.50
2018-08-25T04:12:55.775Z,14.40
2018-08-25T04:14:58.884Z,14.30
2018-08-25T04:17:01.948Z,14.30
2018-08-25T04:19:05.316Z,14.30
2018-08-25T04:21:08.416Z,14.30
2018-08-25T04:23:11.505Z,14.30
2018-08-25T04:25:14.592Z,14.30
2018-08-25T04:27:17.674Z,14.30
2018-08-25T04:29:20.761Z,14.30
2018-08-25T04:31:23.860Z,14.70
2018-08-25T04:33:27.206Z,14.30
2018-08-25T04:35:30.243Z,14.30
2018-08-25T04:37:33.336Z,14.30
2018-08-25T04:39:36.507Z,14.30
2018-08-25T04:41:39.592Z,14.20
2018-08-25T04:43:42.680Z,14.30
2018-08-25T04:45:45.772Z,14.20
2018-08-25T04:47:48.856Z,14.20
2018-08-25T04:49:52.024Z,14.20
2018-08-25T04:51:55.132Z,14.20
2018-08-25T04:53:58.239Z,14.20
2018-08-25T04:56:01.338Z,14.20
2018-08-25T04:58:04.474Z,14.20
2018-08-25T05:00:07.577Z,14.30
2018-08-25T05:02:10.655Z,14.30
2018-08-25T05:04:13.744Z,14.30
2018-08-25T05:06:16.824Z,14.30
2018-08-25T05:08:19.900Z,14.30
2018-08-25T05:10:23.005Z,14.30
2018-08-25T05:12:26.075Z,14.30
2018-08-25T05:14:29.163Z,14.40
2018-08-25T05:16:32.247Z,14.40
2018-08-25T05:18:35.324Z,14.40
2018-08-25T05:20:38.416Z,14.40
2018-08-25T05:22:41.575Z,14.40
2018-08-25T05:24:44.662Z,14.40
2018-08-25T05:26:47.747Z,14.50
2018-08-25T05:28:51.056Z,14.50
2018-08-25T05:30:54.144Z,14.50
2018-08-25T05:32:57.224Z,14.60
2018-08-25T05:35:00.303Z,14.60
2018-08-25T05:37:03.392Z,14.60
2018-08-25T05:39:08.317Z,14.60
2018-08-25T05:41:11.447Z,14.60
2018-08-25T05:43:14.557Z,14.60
2018-08-25T05:45:17.653Z,14.60
2018-08-25T05:47:20.867Z,14.50
2018-08-25T05:49:24.027Z,14.50
2018-08-25T05:51:27.137Z,14.40
2018-08-25T05:53:30.227Z,14.50
2018-08-25T05:55:33.327Z,14.50
2018-08-25T05:57:36.547Z,14.50
2018-08-25T05:59:39.596Z,14.60
2018-08-25T06:01:42.696Z,14.60
2018-08-25T06:03:45.792Z,14.60
2018-08-25T06:05:48.887Z,14.60
2018-08-25T06:07:51.998Z,14.70
2018-08-25T06:09:55.087Z,14.70
2018-08-25T06:11:58.179Z,14.70
2018-08-25T06:14:01.284Z,14.70
2018-08-25T06:16:04.391Z,14.80
2018-08-25T06:18:07.649Z,14.80
2018-08-25T06:20:10.740Z,14.90
2018-08-25T06:22:13.828Z,14.90
2018-08-25T06:26:19.807Z,15.10
2018-08-25T06:28:23.072Z,15.20
2018-08-25T06:30:26.155Z,15.40
2018-08-25T06:32:29.260Z,15.60
2018-08-25T06:36:35.226Z,16.00
2018-08-25T06:38:38.301Z,16.10
2018-08-25T06:40:41.459Z,16.20
2018-08-25T06:42:44.645Z,16.40
2018-08-25T06:44:47.724Z,16.40
2018-08-25T06:46:50.811Z,16.30
2018-08-25T06:48:53.903Z,16.30
2018-08-25T06:50:57.008Z,16.30
2018-08-25T06:53:00.192Z,16.30
2018-08-25T06:55:03.291Z,16.30
2018-08-25T06:57:06.421Z,16.40
2018-08-25T06:59:09.509Z,16.40
2018-08-25T07:01:12.611Z,16.40
2018-08-25T07:03:15.699Z,16.40
2018-08-25T07:05:19.108Z,16.40
2018-08-25T07:07:22.212Z,16.30
2018-08-25T07:09:25.292Z,16.20
2018-08-25T07:11:28.375Z,16.00
2018-08-25T07:13:31.490Z,15.80
2018-08-25T07:15:34.584Z,15.70
2018-08-25T07:17:37.676Z,15.60
2018-08-25T07:19:40.785Z,15.70
2018-08-25T07:21:44.423Z,15.80
2018-08-25T07:23:47.538Z,16.10
2018-08-25T07:25:50.651Z,16.40
2018-08-25T07:27:53.740Z,16.70
2018-08-25T07:29:56.840Z,17.00
2018-08-25T07:31:59.946Z,17.10
2018-08-25T07:34:03.096Z,17.10
2018-08-25T07:36:06.192Z,17.20
2018-08-25T07:38:09.353Z,17.30
2018-08-25T07:40:12.567Z,17.30
2018-08-25T07:42:15.672Z,17.40
2018-08-25T07:44:18.759Z,17.30
2018-08-25T07:46:21.853Z,17.30
2018-08-25T07:48:24.975Z,17.30
2018-08-25T07:52:30.980Z,17.80
2018-08-25T07:54:34.055Z,18.00
2018-08-25T07:56:37.138Z,18.10
2018-08-25T07:58:40.343Z,18.30
2018-08-25T08:00:43.424Z,18.30
2018-08-25T08:02:46.601Z,18.20
2018-08-25T08:04:49.793Z,17.90
2018-08-25T08:06:52.842Z,17.50
2018-08-25T08:08:55.936Z,17.20
2018-08-25T08:10:59.016Z,16.90
2018-08-25T08:13:02.141Z,16.70
2018-08-25T08:15:05.219Z,16.50
2018-08-25T08:17:09.202Z,16.30
2018-08-25T08:19:12.299Z,16.10
2018-08-25T08:21:15.379Z,16.00
2018-08-25T08:23:18.489Z,15.90
2018-08-25T08:25:21.559Z,16.00
2018-08-25T08:27:24.671Z,16.10
2018-08-25T08:29:27.759Z,16.40
2018-08-25T08:31:30.849Z,16.70
2018-08-25T08:33:33.931Z,17.10
2018-08-25T08:35:37.195Z,17.30
2018-08-25T08:37:40.296Z,17.50
2018-08-25T08:39:43.367Z,17.80
2018-08-25T08:43:49.432Z,18.30
2018-08-25T08:45:52.513Z,18.60
2018-08-25T08:47:55.599Z,19.00
2018-08-25T08:49:58.793Z,19.00
2018-08-25T08:52:01.881Z,19.10
2018-08-25T08:54:05.011Z,18.90
2018-08-25T08:56:08.052Z,18.60
2018-08-25T08:58:11.217Z,18.30
2018-08-25T09:00:14.292Z,18.10
2018-08-25T09:02:17.404Z,17.80
2018-08-25T09:04:20.510Z,17.40
2018-08-25T09:06:23.619Z,17.20
2018-08-25T09:08:26.715Z,17.00
2018-08-25T09:10:29.807Z,16.90
2018-08-25T09:12:33.219Z,16.70
2018-08-25T09:14:36.314Z,16.60
2018-08-25T09:16:39.491Z,16.70
2018-08-25T09:18:42.696Z,16.90
2018-08-25T09:20:45.787Z,17.10
2018-08-25T09:22:48.868Z,17.40
2018-08-25T09:24:51.951Z,17.50
2018-08-25T09:26:55.081Z,17.50
2018-08-25T09:28:58.131Z,17.50
2018-08-25T09:31:01.228Z,17.60
2018-08-25T09:33:04.325Z,17.70
2018-08-25T09:35:07.412Z,17.80
2018-08-25T09:37:10.491Z,18.00
2018-08-25T09:39:13.570Z,18.30
2018-08-25T09:41:16.655Z,18.60
2018-08-25T09:43:19.753Z,19.00
2018-08-25T09:45:22.827Z,19.20
2018-08-25T09:47:25.903Z,19.40
2018-08-25T09:49:29.014Z,19.30
2018-08-25T09:51:32.116Z,19.10
2018-08-25T09:53:35.237Z,18.90
2018-08-25T09:55:38.295Z,18.60
2018-08-25T09:57:41.396Z,18.50
2018-08-25T09:59:44.592Z,18.60
2018-08-25T10:01:53.118Z,18.80
2018-08-25T10:03:56.212Z,19.00
2018-08-25T10:05:59.312Z,19.10
2018-08-25T10:08:02.395Z,19.20
2018-08-25T10:10:05.958Z,19.30
2018-08-25T10:12:09.029Z,19.30
2018-08-25T10:14:12.319Z,19.20
2018-08-25T10:16:15.432Z,19.10
2018-08-25T10:18:18.478Z,19.00
2018-08-25T10:20:21.567Z,19.10
2018-08-25T10:22:24.648Z,19.20
2018-08-25T10:24:27.731Z,19.40
2018-08-25T10:26:30.812Z,19.70
2018-08-25T10:28:33.901Z,19.90
2018-08-25T10:30:36.991Z,20.00
2018-08-25T10:32:40.285Z,20.00
2018-08-25T10:34:43.363Z,20.10
2018-08-25T10:36:46.445Z,20.00
2018-08-25T10:38:49.533Z,20.00
2018-08-25T10:40:52.615Z,20.00
2018-08-25T10:42:55.919Z,20.10
2018-08-25T10:44:59.043Z,20.30
2018-08-25T10:47:02.152Z,20.40
2018-08-25T10:49:05.261Z,20.60
2018-08-25T10:51:08.333Z,20.40
2018-08-25T10:53:11.420Z,20.40
2018-08-25T10:55:14.508Z,20.40
2018-08-25T10:59:20.482Z,20.80
2018-08-25T11:01:23.575Z,21.00
2018-08-25T11:03:26.652Z,21.00
2018-08-25T11:05:29.835Z,21.00
2018-08-25T11:07:32.911Z,21.10
2018-08-25T11:09:36.008Z,21.10
2018-08-25T11:11:39.093Z,21.20
2018-08-25T11:13:42.268Z,21.30
2018-08-25T11:15:45.361Z,21.30
2018-08-25T11:17:48.440Z,21.40
2018-08-25T11:19:51.520Z,21.50
2018-08-25T11:21:54.608Z,21.60
2018-08-25T11:23:57.684Z,21.30
2018-08-25T11:26:00.768Z,20.80
2018-08-25T11:28:03.863Z,20.60
2018-08-25T11:32:09.808Z,20.70
2018-08-25T11:34:12.892Z,20.90
2018-08-25T11:36:15.992Z,20.80
2018-08-25T11:38:19.072Z,20.80
2018-08-25T11:40:22.180Z,20.60
2018-08-25T11:42:25.251Z,20.60
2018-08-25T11:44:28.332Z,20.60
2018-08-25T11:46:31.414Z,20.60
2018-08-25T11:48:34.769Z,20.40
2018-08-25T11:50:37.873Z,20.30
2018-08-25T11:52:40.986Z,20.50
2018-08-25T11:54:44.491Z,20.60
2018-08-25T11:56:47.577Z,20.70
2018-08-25T11:58:50.677Z,20.50
2018-08-25T12:00:53.784Z,20.20
2018-08-25T12:02:56.877Z,20.20
2018-08-25T12:04:59.999Z,20.40
2018-08-25T12:07:03.116Z,20.50
2018-08-25T12:09:09.260Z,20.70
2018-08-25T12:11:12.379Z,20.80
2018-08-25T12:13:15.475Z,20.80
2018-08-25T12:15:18.571Z,20.70
2018-08-25T12:17:21.651Z,20.70
2018-08-25T12:19:24.752Z,20.80
2018-08-25T12:21:27.876Z,20.90
2018-08-25T12:23:31.008Z,21.10
2018-08-25T12:25:34.137Z,21.10
2018-08-25T12:27:37.324Z,21.10
2018-08-25T12:29:40.418Z,21.20
2018-08-25T12:31:43.515Z,21.30
2018-08-25T12:33:46.632Z,21.50
2018-08-25T12:35:49.723Z,21.50
2018-08-25T12:37:52.808Z,21.80
2018-08-25T12:39:55.924Z,22.00
2018-08-25T12:41:59.132Z,22.40
2018-08-25T12:44:02.308Z,22.70
2018-08-25T12:46:05.496Z,22.90
2018-08-25T12:48:08.587Z,23.10
2018-08-25T12:50:11.677Z,23.30
2018-08-25T12:52:14.778Z,23.50
2018-08-25T12:54:17.868Z,23.50
2018-08-25T12:56:20.956Z,23.60
2018-08-25T13:14:49.359Z,23.60
2018-08-25T13:18:55.336Z,22.90
2018-08-25T13:20:58.368Z,21.90
2018-08-25T13:25:04.337Z,20.00
2018-08-25T13:27:07.572Z,19.60
2018-08-25T13:29:10.645Z,17.50
2018-08-25T13:31:13.748Z,17.00
2018-08-25T13:33:16.828Z,15.70
2018-08-25T13:35:19.909Z,15.20
2018-08-25T13:37:23.006Z,14.80
2018-08-25T13:39:26.104Z,14.60
2018-08-25T13:41:29.242Z,14.40
2018-08-25T13:43:32.329Z,14.50
2018-08-25T13:45:35.400Z,14.80
2018-08-25T13:47:38.479Z,15.10
2018-08-25T13:49:41.563Z,15.40
2018-08-25T13:51:44.673Z,15.50
2018-08-25T13:53:47.788Z,15.60
2018-08-25T13:55:50.883Z,15.80
2018-08-25T13:57:53.975Z,15.90
2018-08-25T13:59:57.555Z,15.80
2018-08-25T14:02:00.907Z,15.80
2018-08-25T14:04:03.992Z,16.00
2018-08-25T14:06:07.314Z,16.30
2018-08-25T14:08:10.800Z,16.60
2018-08-25T14:10:13.824Z,16.80
2018-08-25T14:12:16.899Z,16.80
2018-08-25T14:14:19.990Z,16.90
2018-08-25T14:16:23.098Z,16.90
2018-08-25T14:18:26.154Z,17.00
2018-08-25T14:20:29.348Z,17.00
2018-08-25T14:22:32.431Z,16.90
2018-08-25T14:24:35.503Z,16.90
2018-08-25T14:26:38.588Z,16.90
2018-08-25T14:28:41.732Z,17.10
2018-08-25T14:30:44.790Z,17.30
2018-08-25T14:32:47.937Z,17.40
2018-08-25T14:34:51.032Z,17.50
2018-08-25T14:36:54.742Z,17.50
2018-08-25T14:38:57.824Z,17.80
2018-08-25T14:41:00.914Z,18.10
2018-08-25T14:43:04.000Z,18.30
2018-08-25T14:45:07.084Z,18.40
2018-08-25T14:47:10.168Z,18.50
2018-08-25T14:49:13.262Z,18.40
2018-08-25T14:51:16.360Z,18.30
2018-08-25T14:53:19.494Z,18.30
2018-08-25T14:55:22.584Z,18.10
2018-08-25T14:57:26.280Z,18.00
2018-08-25T14:59:29.372Z,17.70
2018-08-25T15:01:32.455Z,17.50
2018-08-25T15:03:35.547Z,17.40
2018-08-25T15:05:38.631Z,17.30
2018-08-25T15:07:41.834Z,17.30
2018-08-25T15:09:44.915Z,17.30
2018-08-25T15:11:48.001Z,17.30
2018-08-25T15:13:51.404Z,17.40
2018-08-25T15:15:54.505Z,17.50
2018-08-25T15:17:58.562Z,17.50
2018-08-25T15:20:01.629Z,17.60
2018-08-25T15:22:04.716Z,17.50
2018-08-25T15:24:07.827Z,17.50
2018-08-25T15:26:10.911Z,17.60
2018-08-25T15:28:14.099Z,17.80
2018-08-25T15:30:17.176Z,17.80
2018-08-25T15:32:20.288Z,17.90
2018-08-25T15:34:23.400Z,17.90
2018-08-25T15:36:26.563Z,18.00
2018-08-25T15:38:29.728Z,17.90
2018-08-25T15:40:32.824Z,17.90
2018-08-25T15:42:35.907Z,17.90
2018-08-25T15:44:39.004Z,17.90
2018-08-25T15:46:42.099Z,17.90
2018-08-25T15:48:45.199Z,17.90
2018-08-25T15:50:48.760Z,18.00
2018-08-25T15:52:51.846Z,18.10
2018-08-25T15:54:54.939Z,18.10
2018-08-25T15:56:58.040Z,18.00
2018-08-25T15:59:01.146Z,17.90
2018-08-25T16:01:04.257Z,17.80
2018-08-25T16:03:07.402Z,17.70
2018-08-25T16:05:10.495Z,17.60
2018-08-25T16:07:13.596Z,17.50
2018-08-25T16:09:16.698Z,17.40
2018-08-25T16:11:19.806Z,17.40
2018-08-25T16:13:22.881Z,17.20
2018-08-25T16:15:25.968Z,17.10
2018-08-25T16:17:29.363Z,17.00
2018-08-25T16:19:32.595Z,16.90
2018-08-25T16:21:35.619Z,16.80
2018-08-25T16:23:38.720Z,16.70
2018-08-25T16:27:44.833Z,16.60
2018-08-25T16:29:47.983Z,16.50
2018-08-25T16:31:51.067Z,16.30
2018-08-25T16:33:54.160Z,16.30
2018-08-25T16:35:57.259Z,16.10
2018-08-25T16:38:00.359Z,16.10
2018-08-25T16:40:03.464Z,16.10
2018-08-25T16:42:06.567Z,16.00
2018-08-25T16:44:09.667Z,16.00
2018-08-25T16:46:12.768Z,16.00
2018-08-25T16:48:15.865Z,16.00
2018-08-25T16:50:18.957Z,16.00
2018-08-25T16:52:22.048Z,16.10
2018-08-25T16:54:25.145Z,16.20
2018-08-25T16:56:28.261Z,16.40
2018-08-25T16:58:31.337Z,16.50
2018-08-25T17:00:34.434Z,16.70
2018-08-25T17:02:37.527Z,16.80
2018-08-25T17:04:40.631Z,17.10
2018-08-25T17:06:43.715Z,17.30
2018-08-25T17:08:46.825Z,17.40
2018-08-25T17:10:49.883Z,17.40
2018-08-25T17:12:52.976Z,17.40
2018-08-25T17:14:56.075Z,17.40
2018-08-25T17:16:59.432Z,17.30
2018-08-25T17:19:02.519Z,17.20
2018-08-25T17:21:05.748Z,17.00
2018-08-25T17:23:08.788Z,16.90
2018-08-25T17:25:11.887Z,16.80
2018-08-25T17:27:15.094Z,16.70
2018-08-25T17:29:18.196Z,16.60
2018-08-25T17:31:21.284Z,16.50
2018-08-25T17:33:24.380Z,16.40
2018-08-25T17:35:27.517Z,16.20
2018-08-25T17:37:30.599Z,16.00
2018-08-25T17:39:33.692Z,15.80
2018-08-25T17:41:36.824Z,15.60
2018-08-25T17:43:39.948Z,15.60
2018-08-25T17:45:43.351Z,15.50
2018-08-25T17:47:46.471Z,15.40
2018-08-25T17:49:49.571Z,15.30
2018-08-25T17:51:52.678Z,15.20
2018-08-25T17:53:55.779Z,15.10
2018-08-25T17:55:58.868Z,15.00
2018-08-25T17:58:01.947Z,15.00
2018-08-25T18:00:05.648Z,14.90
2018-08-25T18:02:08.735Z,14.90
2018-08-25T18:04:11.832Z,14.80
2018-08-25T18:06:15.104Z,14.80
2018-08-25T18:08:18.225Z,14.80
2018-08-25T18:10:21.564Z,14.70
2018-08-25T18:12:24.667Z,14.80
2018-08-25T18:14:28.163Z,14.80
2018-08-25T18:16:31.243Z,14.80
2018-08-25T18:18:34.352Z,14.90
2018-08-25T18:20:37.447Z,14.80
2018-08-25T18:22:40.527Z,14.80
2018-08-25T18:24:43.652Z,14.80
2018-08-25T18:26:46.746Z,14.80
2018-08-25T18:28:49.844Z,14.80
2018-08-25T18:30:52.935Z,14.80
2018-08-25T18:32:56.124Z,14.80
2018-08-25T18:34:59.207Z,14.70
2018-08-25T18:37:02.287Z,14.70
2018-08-25T18:39:08.495Z,14.60
2018-08-25T18:41:11.583Z,14.60
2018-08-25T18:43:14.663Z,14.60
2018-08-25T18:45:17.772Z,14.50
2018-08-25T18:47:20.953Z,14.50
2018-08-25T18:49:24.080Z,14.40
2018-08-25T18:51:27.559Z,14.30
2018-08-25T18:53:30.643Z,14.20
2018-08-25T18:55:33.731Z,14.20
2018-08-25T18:57:36.820Z,14.10
2018-08-25T18:59:39.928Z,14.00
2018-08-25T19:01:43.038Z,14.00
2018-08-25T19:03:46.099Z,14.00
2018-08-25T19:05:49.200Z,14.00
2018-08-25T19:07:52.288Z,14.00
2018-08-25T19:09:55.388Z,13.90
2018-08-25T19:11:58.469Z,13.90
2018-08-25T19:14:01.613Z,13.90
2018-08-25T19:16:04.680Z,13.80
2018-08-25T19:18:07.766Z,13.80
2018-08-25T19:20:10.874Z,13.70
2018-08-25T19:22:14.198Z,13.70
2018-08-25T19:24:17.349Z,13.70
2018-08-25T19:26:20.376Z,13.70
2018-08-25T19:28:23.472Z,13.70
2018-08-25T19:30:26.556Z,13.70
2018-08-25T19:32:29.641Z,13.70
2018-08-25T19:34:32.743Z,13.70
2018-08-25T19:36:35.840Z,13.60
2018-08-25T19:38:38.923Z,13.60
2018-08-25T19:40:42.327Z,13.60
2018-08-25T19:42:45.403Z,13.50
2018-08-25T19:44:48.488Z,13.50
2018-08-25T19:46:51.641Z,13.40
2018-08-25T19:48:54.691Z,13.40
2018-08-25T19:50:57.799Z,13.40
2018-08-25T19:53:00.930Z,13.40
2018-08-25T19:55:04.005Z,13.30
2018-08-25T19:57:07.097Z,13.30
2018-08-25T19:59:10.192Z,13.20
2018-08-25T20:01:13.323Z,13.20
2018-08-25T20:03:16.401Z,13.20
2018-08-25T20:05:19.502Z,13.20
2018-08-25T20:07:22.590Z,13.10
2018-08-25T20:09:25.770Z,13.10
2018-08-25T22:39:01.805Z,11.40
2018-08-25T22:41:05.048Z,11.30
2018-08-25T22:43:08.128Z,11.30
2018-08-25T22:45:11.221Z,11.30
2018-08-25T22:47:14.301Z,11.20
2018-08-25T22:49:17.385Z,11.20
2018-08-25T22:51:20.550Z,11.20
2018-08-25T22:53:23.592Z,11.20
2018-08-25T22:55:26.688Z,11.20
2018-08-25T22:57:29.779Z,11.20
2018-08-25T22:59:32.880Z,11.10
2018-08-25T23:01:35.972Z,11.10
2018-08-25T23:03:39.059Z,11.10
2018-08-25T23:05:42.151Z,11.10
2018-08-25T23:07:45.279Z,11.10
2018-08-25T23:09:48.372Z,11.10
2018-08-25T23:11:51.467Z,11.00
2018-08-25T23:13:54.571Z,11.00
2018-08-25T23:15:57.671Z,11.00
2018-08-25T23:18:00.759Z,11.00
2018-08-25T23:20:03.902Z,11.00
2018-08-25T23:22:07.012Z,10.90
2018-08-25T23:24:10.107Z,10.90
2018-08-25T23:26:13.247Z,10.90
2018-08-25T23:28:16.459Z,10.80
2018-08-25T23:30:19.612Z,10.80
2018-08-25T23:32:22.693Z,10.80
2018-08-25T23:34:25.800Z,10.80
2018-08-25T23:36:28.978Z,10.80
2018-08-25T23:38:32.067Z,10.80
2018-08-25T23:40:35.170Z,10.80
2018-08-25T23:42:38.256Z,10.80
2018-08-25T23:44:41.343Z,10.80
2018-08-25T23:46:44.440Z,10.80
2018-08-25T23:48:47.570Z,10.70
2018-08-25T23:50:50.678Z,10.70
2018-08-25T23:52:53.771Z,10.70
2018-08-25T23:54:56.860Z,10.70
2018-08-25T23:56:59.959Z,10.70
2018-08-25T23:59:03.092Z,10.70
